sensor_id;sensor_type;location;lat;lon;timestamp;pressure;altitude;pressure_sealevel;temperature;humidity
57885;BME280;43703;51.060;-0.086;2022-08-19T00:00:27;99996.98;;;17.43;69.76
57885;BME280;43703;51.060;-0.086;2022-08-19T00:02:52;99991.27;;;17.32;71.11
57885;BME280;43703;51.060;-0.086;2022-08-19T00:05:19;99988.99;;;17.39;69.62
57885;BME280;43703;51.060;-0.086;2022-08-19T00:07:43;99987.68;;;18.86;67.10
57885;BME280;43703;51.060;-0.086;2022-08-19T00:10:10;99988.12;;;17.92;68.38
57885;BME280;43703;51.060;-0.086;2022-08-19T00:12:35;99985.24;;;17.11;72.07
57885;BME280;43703;51.060;-0.086;2022-08-19T00:15:01;99984.37;;;17.42;71.33
57885;BME280;43703;51.060;-0.086;2022-08-19T00:17:26;99978.44;;;18.41;68.96
57885;BME280;43703;51.060;-0.086;2022-08-19T00:19:52;99982.40;;;17.64;70.21
57885;BME280;43703;51.060;-0.086;2022-08-19T00:22:16;99980.47;;;17.05;71.83
57885;BME280;43703;51.060;-0.086;2022-08-19T00:24:42;99978.91;;;16.54;73.80
57885;BME280;43703;51.060;-0.086;2022-08-19T00:27:08;99979.99;;;17.21;73.93
57885;BME280;43703;51.060;-0.086;2022-08-19T00:29:34;99978.30;;;16.23;75.50
57885;BME280;43703;51.060;-0.086;2022-08-19T00:32:00;99979.43;;;17.02;74.06
57885;BME280;43703;51.060;-0.086;2022-08-19T00:34:26;99980.34;;;17.55;72.64
57885;BME280;43703;51.060;-0.086;2022-08-19T00:36:52;99977.47;;;17.01;73.46
57885;BME280;43703;51.060;-0.086;2022-08-19T00:39:17;99977.56;;;16.48;75.63
57885;BME280;43703;51.060;-0.086;2022-08-19T00:41:44;99977.53;;;16.63;75.46
57885;BME280;43703;51.060;-0.086;2022-08-19T00:44:13;99974.22;;;17.27;73.40
57885;BME280;43703;51.060;-0.086;2022-08-19T00:46:36;99978.22;;;17.26;72.42
57885;BME280;43703;51.060;-0.086;2022-08-19T00:49:01;99984.64;;;17.98;71.65
57885;BME280;43703;51.060;-0.086;2022-08-19T00:51:27;99983.04;;;17.21;71.88
57885;BME280;43703;51.060;-0.086;2022-08-19T00:53:51;99984.58;;;17.49;71.92
57885;BME280;43703;51.060;-0.086;2022-08-19T00:56:17;99977.42;;;17.01;74.19
57885;BME280;43703;51.060;-0.086;2022-08-19T00:58:43;99976.76;;;17.57;72.60
57885;BME280;43703;51.060;-0.086;2022-08-19T01:01:09;99969.83;;;16.95;74.27
57885;BME280;43703;51.060;-0.086;2022-08-19T01:03:34;99966.32;;;16.58;75.00
57885;BME280;43703;51.060;-0.086;2022-08-19T01:06:00;99960.98;;;17.19;73.91
57885;BME280;43703;51.060;-0.086;2022-08-19T01:08:26;99969.39;;;17.36;72.84
57885;BME280;43703;51.060;-0.086;2022-08-19T01:10:54;99974.68;;;18.02;70.83
57885;BME280;43703;51.060;-0.086;2022-08-19T01:13:20;99975.86;;;17.26;72.59
57885;BME280;43703;51.060;-0.086;2022-08-19T01:15:45;99979.73;;;17.06;73.62
57885;BME280;43703;51.060;-0.086;2022-08-19T01:18:12;99973.84;;;17.60;72.26
57885;BME280;43703;51.060;-0.086;2022-08-19T01:20:35;99973.95;;;16.43;75.63
57885;BME280;43703;51.060;-0.086;2022-08-19T01:23:01;99973.53;;;16.09;78.78
57885;BME280;43703;51.060;-0.086;2022-08-19T01:25:29;99970.41;;;17.72;73.32
57885;BME280;43703;51.060;-0.086;2022-08-19T01:27:52;99965.85;;;16.57;75.97
57885;BME280;43703;51.060;-0.086;2022-08-19T01:30:24;99962.40;;;18.20;71.84
57885;BME280;43703;51.060;-0.086;2022-08-19T01:32:44;99962.81;;;17.53;72.43
57885;BME280;43703;51.060;-0.086;2022-08-19T01:35:12;99961.97;;;17.97;71.47
57885;BME280;43703;51.060;-0.086;2022-08-19T01:37:42;99959.61;;;18.22;69.34
57885;BME280;43703;51.060;-0.086;2022-08-19T01:40:01;99961.70;;;17.85;70.00
57885;BME280;43703;51.060;-0.086;2022-08-19T01:42:27;99958.85;;;18.00;70.00
57885;BME280;43703;51.060;-0.086;2022-08-19T01:44:53;99964.12;;;17.73;70.39
57885;BME280;43703;51.060;-0.086;2022-08-19T01:47:19;99967.09;;;18.21;69.57
57885;BME280;43703;51.060;-0.086;2022-08-19T01:49:44;99967.72;;;18.49;69.50
57885;BME280;43703;51.060;-0.086;2022-08-19T01:52:10;99966.78;;;18.25;69.21
57885;BME280;43703;51.060;-0.086;2022-08-19T01:54:35;99965.99;;;17.85;70.24
57885;BME280;43703;51.060;-0.086;2022-08-19T01:57:07;99969.60;;;17.85;69.68
57885;BME280;43703;51.060;-0.086;2022-08-19T01:59:28;99967.58;;;17.90;70.25
57885;BME280;43703;51.060;-0.086;2022-08-19T02:01:53;99963.04;;;17.54;71.92
57885;BME280;43703;51.060;-0.086;2022-08-19T02:04:19;99956.44;;;18.17;69.98
57885;BME280;43703;51.060;-0.086;2022-08-19T02:06:45;99957.84;;;18.49;69.14
57885;BME280;43703;51.060;-0.086;2022-08-19T02:09:11;99958.27;;;19.23;67.14
57885;BME280;43703;51.060;-0.086;2022-08-19T02:11:37;99953.54;;;18.75;67.33
57885;BME280;43703;51.060;-0.086;2022-08-19T02:14:04;99955.19;;;19.64;66.25
57885;BME280;43703;51.060;-0.086;2022-08-19T02:16:29;99955.10;;;19.32;66.29
57885;BME280;43703;51.060;-0.086;2022-08-19T02:18:54;99954.48;;;19.45;65.18
57885;BME280;43703;51.060;-0.086;2022-08-19T02:21:21;99956.67;;;18.85;66.04
57885;BME280;43703;51.060;-0.086;2022-08-19T02:23:46;99955.89;;;18.51;67.32
57885;BME280;43703;51.060;-0.086;2022-08-19T02:26:12;99956.90;;;19.36;66.45
57885;BME280;43703;51.060;-0.086;2022-08-19T02:28:38;99961.65;;;18.35;68.35
57885;BME280;43703;51.060;-0.086;2022-08-19T02:31:09;99962.86;;;18.46;68.79
57885;BME280;43703;51.060;-0.086;2022-08-19T02:33:29;99961.24;;;18.36;68.91
57885;BME280;43703;51.060;-0.086;2022-08-19T02:35:55;99962.01;;;17.53;71.52
57885;BME280;43703;51.060;-0.086;2022-08-19T02:38:21;99961.00;;;17.37;71.28
57885;BME280;43703;51.060;-0.086;2022-08-19T02:40:49;99965.08;;;18.32;68.98
57885;BME280;43703;51.060;-0.086;2022-08-19T02:43:12;99964.31;;;17.74;70.85
57885;BME280;43703;51.060;-0.086;2022-08-19T02:45:39;99965.41;;;17.80;71.43
57885;BME280;43703;51.060;-0.086;2022-08-19T02:48:04;99963.07;;;18.01;71.16
57885;BME280;43703;51.060;-0.086;2022-08-19T02:50:30;99965.75;;;18.73;68.94
57885;BME280;43703;51.060;-0.086;2022-08-19T02:52:55;99970.93;;;18.01;70.78
57885;BME280;43703;51.060;-0.086;2022-08-19T02:55:21;99969.91;;;17.68;71.54
57885;BME280;43703;51.060;-0.086;2022-08-19T02:57:47;99970.34;;;17.99;71.78
57885;BME280;43703;51.060;-0.086;2022-08-19T03:00:14;99969.05;;;17.51;72.23
57885;BME280;43703;51.060;-0.086;2022-08-19T03:02:39;99969.93;;;16.71;74.86
57885;BME280;43703;51.060;-0.086;2022-08-19T03:05:06;99967.35;;;16.86;75.14
57885;BME280;43703;51.060;-0.086;2022-08-19T03:07:30;99966.45;;;17.37;73.75
57885;BME280;43703;51.060;-0.086;2022-08-19T03:09:56;99966.27;;;16.73;75.91
57885;BME280;43703;51.060;-0.086;2022-08-19T03:12:22;99967.97;;;16.23;77.04
57885;BME280;43703;51.060;-0.086;2022-08-19T03:14:48;99969.53;;;16.32;78.48
57885;BME280;43703;51.060;-0.086;2022-08-19T03:17:14;99968.62;;;16.72;78.21
57885;BME280;43703;51.060;-0.086;2022-08-19T03:19:40;99967.83;;;16.21;77.41
57885;BME280;43703;51.060;-0.086;2022-08-19T03:22:05;99969.20;;;16.25;77.51
57885;BME280;43703;51.060;-0.086;2022-08-19T03:24:31;99969.11;;;16.58;77.41
57885;BME280;43703;51.060;-0.086;2022-08-19T03:26:57;99968.38;;;16.40;78.80
57885;BME280;43703;51.060;-0.086;2022-08-19T03:29:24;99966.88;;;16.58;77.33
57885;BME280;43703;51.060;-0.086;2022-08-19T03:31:49;99968.96;;;16.93;75.32
57885;BME280;43703;51.060;-0.086;2022-08-19T03:34:17;99966.14;;;16.45;77.93
57885;BME280;43703;51.060;-0.086;2022-08-19T03:36:40;99966.94;;;17.05;76.79
57885;BME280;43703;51.060;-0.086;2022-08-19T03:39:06;99968.83;;;16.27;77.99
57885;BME280;43703;51.060;-0.086;2022-08-19T03:41:37;99969.48;;;16.52;77.01
57885;BME280;43703;51.060;-0.086;2022-08-19T03:43:58;99967.04;;;16.63;76.64
57885;BME280;43703;51.060;-0.086;2022-08-19T03:46:25;99968.77;;;16.41;77.87
57885;BME280;43703;51.060;-0.086;2022-08-19T03:48:52;99972.59;;;16.18;78.60
57885;BME280;43703;51.060;-0.086;2022-08-19T03:51:17;99974.51;;;16.42;78.53
57885;BME280;43703;51.060;-0.086;2022-08-19T03:53:41;99973.44;;;15.91;79.25
57885;BME280;43703;51.060;-0.086;2022-08-19T03:56:09;99976.20;;;15.87;79.94
57885;BME280;43703;51.060;-0.086;2022-08-19T03:58:33;99974.23;;;16.60;78.85
57885;BME280;43703;51.060;-0.086;2022-08-19T04:00:58;99972.32;;;16.75;76.25
57885;BME280;43703;51.060;-0.086;2022-08-19T04:03:25;99968.47;;;17.11;75.70
57885;BME280;43703;51.060;-0.086;2022-08-19T04:05:50;99967.43;;;17.24;74.81
57885;BME280;43703;51.060;-0.086;2022-08-19T04:08:16;99967.85;;;17.29;74.76
57885;BME280;43703;51.060;-0.086;2022-08-19T04:10:48;99969.63;;;16.22;78.31
57885;BME280;43703;51.060;-0.086;2022-08-19T04:13:08;99967.26;;;16.89;76.47
57885;BME280;43703;51.060;-0.086;2022-08-19T04:15:33;99970.68;;;17.25;74.85
57885;BME280;43703;51.060;-0.086;2022-08-19T04:17:59;99976.70;;;17.85;72.49
57885;BME280;43703;51.060;-0.086;2022-08-19T04:20:25;99976.42;;;18.19;72.46
57885;BME280;43703;51.060;-0.086;2022-08-19T04:22:51;99975.86;;;17.39;73.42
57885;BME280;43703;51.060;-0.086;2022-08-19T04:25:16;99974.15;;;17.07;74.72
57885;BME280;43703;51.060;-0.086;2022-08-19T04:27:43;99974.25;;;16.77;76.72
57885;BME280;43703;51.060;-0.086;2022-08-19T04:30:09;99973.46;;;16.99;75.25
57885;BME280;43703;51.060;-0.086;2022-08-19T04:32:34;99973.82;;;17.29;73.87
57885;BME280;43703;51.060;-0.086;2022-08-19T04:35:00;99973.70;;;17.82;73.89
57885;BME280;43703;51.060;-0.086;2022-08-19T04:37:27;99978.02;;;16.31;77.72
57885;BME280;43703;51.060;-0.086;2022-08-19T04:39:52;99978.30;;;16.50;78.21
57885;BME280;43703;51.060;-0.086;2022-08-19T04:42:18;99976.19;;;17.09;77.07
57885;BME280;43703;51.060;-0.086;2022-08-19T04:44:43;99982.10;;;18.56;72.24
57885;BME280;43703;51.060;-0.086;2022-08-19T04:47:09;99987.26;;;17.91;72.36
57885;BME280;43703;51.060;-0.086;2022-08-19T04:49:35;99989.50;;;17.20;74.79
57885;BME280;43703;51.060;-0.086;2022-08-19T04:52:01;99988.63;;;17.74;74.08
57885;BME280;43703;51.060;-0.086;2022-08-19T04:54:26;99989.88;;;17.85;73.77
57885;BME280;43703;51.060;-0.086;2022-08-19T04:56:58;99988.06;;;16.95;75.64
57885;BME280;43703;51.060;-0.086;2022-08-19T04:59:18;99991.45;;;17.43;74.05
57885;BME280;43703;51.060;-0.086;2022-08-19T05:01:44;99989.75;;;17.36;75.95
57885;BME280;43703;51.060;-0.086;2022-08-19T05:04:10;99998.00;;;17.78;73.68
57885;BME280;43703;51.060;-0.086;2022-08-19T05:06:36;100000.39;;;16.32;77.68
57885;BME280;43703;51.060;-0.086;2022-08-19T05:09:02;100001.33;;;16.86;76.99
57885;BME280;43703;51.060;-0.086;2022-08-19T05:11:33;100003.06;;;17.75;74.87
57885;BME280;43703;51.060;-0.086;2022-08-19T05:13:52;100001.87;;;16.72;77.18
57885;BME280;43703;51.060;-0.086;2022-08-19T05:16:20;100001.84;;;17.56;74.47
57885;BME280;43703;51.060;-0.086;2022-08-19T05:18:45;99999.10;;;17.76;72.51
57885;BME280;43703;51.060;-0.086;2022-08-19T05:21:13;100000.01;;;17.69;72.03
57885;BME280;43703;51.060;-0.086;2022-08-19T05:23:36;100001.83;;;16.63;77.88
57885;BME280;43703;51.060;-0.086;2022-08-19T05:26:02;100005.28;;;17.56;74.57
57885;BME280;43703;51.060;-0.086;2022-08-19T05:28:28;100008.08;;;16.61;77.00
57885;BME280;43703;51.060;-0.086;2022-08-19T05:30:54;100011.95;;;16.97;76.43
57885;BME280;43703;51.060;-0.086;2022-08-19T05:33:19;100014.22;;;17.84;73.79
57885;BME280;43703;51.060;-0.086;2022-08-19T05:35:45;100009.90;;;16.80;76.37
57885;BME280;43703;51.060;-0.086;2022-08-19T05:38:11;100017.12;;;17.52;74.70
57885;BME280;43703;51.060;-0.086;2022-08-19T05:40:38;100016.86;;;17.02;75.63
57885;BME280;43703;51.060;-0.086;2022-08-19T05:43:03;100019.54;;;17.58;73.54
57885;BME280;43703;51.060;-0.086;2022-08-19T05:45:29;100018.04;;;17.97;72.48
57885;BME280;43703;51.060;-0.086;2022-08-19T05:47:54;100017.83;;;17.25;74.29
57885;BME280;43703;51.060;-0.086;2022-08-19T05:50:20;100016.99;;;16.68;75.26
57885;BME280;43703;51.060;-0.086;2022-08-19T05:52:46;100026.37;;;18.03;72.59
57885;BME280;43703;51.060;-0.086;2022-08-19T05:55:12;100027.64;;;16.55;76.41
57885;BME280;43703;51.060;-0.086;2022-08-19T05:57:37;100025.19;;;17.43;74.25
57885;BME280;43703;51.060;-0.086;2022-08-19T06:00:05;100023.03;;;17.81;72.35
57885;BME280;43703;51.060;-0.086;2022-08-19T06:02:29;100022.01;;;18.26;71.17
57885;BME280;43703;51.060;-0.086;2022-08-19T06:04:55;100018.54;;;17.42;72.45
57885;BME280;43703;51.060;-0.086;2022-08-19T06:07:21;100019.33;;;17.94;70.91
57885;BME280;43703;51.060;-0.086;2022-08-19T06:09:47;100021.01;;;18.78;69.40
57885;BME280;43703;51.060;-0.086;2022-08-19T06:12:12;100020.66;;;18.22;69.58
57885;BME280;43703;51.060;-0.086;2022-08-19T06:14:38;100024.61;;;18.76;68.87
57885;BME280;43703;51.060;-0.086;2022-08-19T06:17:04;100031.29;;;17.91;70.90
57885;BME280;43703;51.060;-0.086;2022-08-19T06:19:30;100037.83;;;17.97;70.57
57885;BME280;43703;51.060;-0.086;2022-08-19T06:21:57;100040.97;;;19.03;68.87
57885;BME280;43703;51.060;-0.086;2022-08-19T06:24:25;100038.02;;;18.02;70.22
57885;BME280;43703;51.060;-0.086;2022-08-19T06:26:49;100037.24;;;18.80;69.04
57885;BME280;43703;51.060;-0.086;2022-08-19T06:29:15;100036.30;;;18.67;67.88
57885;BME280;43703;51.060;-0.086;2022-08-19T06:31:42;100033.69;;;18.13;69.97
57885;BME280;43703;51.060;-0.086;2022-08-19T06:34:05;100037.96;;;18.68;68.27
57885;BME280;43703;51.060;-0.086;2022-08-19T06:36:33;100038.06;;;18.70;67.50
57885;BME280;43703;51.060;-0.086;2022-08-19T06:38:57;100032.04;;;18.68;69.66
57885;BME280;43703;51.060;-0.086;2022-08-19T06:41:22;100035.62;;;17.78;70.90
57885;BME280;43703;51.060;-0.086;2022-08-19T06:43:48;100034.47;;;18.05;71.36
57885;BME280;43703;51.060;-0.086;2022-08-19T06:46:17;100030.17;;;18.26;71.65
57885;BME280;43703;51.060;-0.086;2022-08-19T06:48:40;100030.81;;;17.69;71.34
57885;BME280;43703;51.060;-0.086;2022-08-19T06:51:06;100036.55;;;17.66;72.05
57885;BME280;43703;51.060;-0.086;2022-08-19T06:53:32;100034.47;;;17.94;71.12
57885;BME280;43703;51.060;-0.086;2022-08-19T06:55:57;100032.05;;;18.48;69.17
57885;BME280;43703;51.060;-0.086;2022-08-19T06:58:23;100038.35;;;19.37;67.27
57885;BME280;43703;51.060;-0.086;2022-08-19T07:00:49;100039.00;;;18.36;68.54
57885;BME280;43703;51.060;-0.086;2022-08-19T07:03:15;100037.65;;;18.49;68.28
57885;BME280;43703;51.060;-0.086;2022-08-19T07:05:41;100035.83;;;18.61;68.95
57885;BME280;43703;51.060;-0.086;2022-08-19T07:08:06;100037.57;;;18.77;69.01
57885;BME280;43703;51.060;-0.086;2022-08-19T07:10:33;100041.70;;;18.14;69.62
57885;BME280;43703;51.060;-0.086;2022-08-19T07:12:58;100043.35;;;18.58;67.95
57885;BME280;43703;51.060;-0.086;2022-08-19T07:15:25;100043.30;;;18.35;68.66
57885;BME280;43703;51.060;-0.086;2022-08-19T07:17:50;100042.25;;;18.61;67.18
57885;BME280;43703;51.060;-0.086;2022-08-19T07:20:17;100045.91;;;18.91;67.37
57885;BME280;43703;51.060;-0.086;2022-08-19T07:22:42;100046.80;;;19.65;66.93
57885;BME280;43703;51.060;-0.086;2022-08-19T07:25:09;100052.46;;;18.80;66.81
57885;BME280;43703;51.060;-0.086;2022-08-19T07:27:34;100048.51;;;18.55;69.49
57885;BME280;43703;51.060;-0.086;2022-08-19T07:30:02;100044.91;;;19.14;67.96
57885;BME280;43703;51.060;-0.086;2022-08-19T07:32:25;100045.39;;;18.97;65.47
57885;BME280;43703;51.060;-0.086;2022-08-19T07:34:51;100050.26;;;19.83;63.92
57885;BME280;43703;51.060;-0.086;2022-08-19T07:37:17;100056.00;;;19.44;68.09
57885;BME280;43703;51.060;-0.086;2022-08-19T07:39:42;100056.37;;;20.05;65.93
57885;BME280;43703;51.060;-0.086;2022-08-19T07:42:09;100051.58;;;19.55;65.42
57885;BME280;43703;51.060;-0.086;2022-08-19T07:44:35;100047.87;;;19.29;67.03
57885;BME280;43703;51.060;-0.086;2022-08-19T07:47:00;100044.66;;;19.86;64.74
57885;BME280;43703;51.060;-0.086;2022-08-19T07:49:26;100051.96;;;20.41;63.38
57885;BME280;43703;51.060;-0.086;2022-08-19T07:51:55;100060.48;;;19.79;64.26
57885;BME280;43703;51.060;-0.086;2022-08-19T07:54:20;100063.35;;;19.48;64.15
57885;BME280;43703;51.060;-0.086;2022-08-19T07:56:44;100056.50;;;19.97;62.41
57885;BME280;43703;51.060;-0.086;2022-08-19T07:59:13;100056.49;;;19.79;60.76
57885;BME280;43703;51.060;-0.086;2022-08-19T08:01:36;100051.97;;;21.23;58.88
57885;BME280;43703;51.060;-0.086;2022-08-19T08:04:09;100059.67;;;20.96;58.75
57885;BME280;43703;51.060;-0.086;2022-08-19T08:06:27;100066.57;;;19.35;60.45
57885;BME280;43703;51.060;-0.086;2022-08-19T08:09:05;100066.69;;;18.34;62.17
57885;BME280;43703;51.060;-0.086;2022-08-19T08:11:20;100068.37;;;18.12;64.43
57885;BME280;43703;51.060;-0.086;2022-08-19T08:13:47;100073.52;;;18.89;62.94
57885;BME280;43703;51.060;-0.086;2022-08-19T08:16:11;100076.18;;;18.59;61.73
57885;BME280;43703;51.060;-0.086;2022-08-19T08:18:35;100073.79;;;19.19;63.11
57885;BME280;43703;51.060;-0.086;2022-08-19T08:21:03;100071.00;;;19.41;62.38
57885;BME280;43703;51.060;-0.086;2022-08-19T08:23:34;100074.08;;;20.08;60.65
57885;BME280;43703;51.060;-0.086;2022-08-19T08:25:56;100072.11;;;19.80;61.42
57885;BME280;43703;51.060;-0.086;2022-08-19T08:28:19;100070.78;;;20.17;58.84
57885;BME280;43703;51.060;-0.086;2022-08-19T08:33:16;100069.30;;;20.62;58.35
57885;BME280;43703;51.060;-0.086;2022-08-19T08:35:39;100067.63;;;20.85;57.21
57885;BME280;43703;51.060;-0.086;2022-08-19T08:38:07;100069.37;;;20.41;58.92
57885;BME280;43703;51.060;-0.086;2022-08-19T08:42:59;100068.40;;;20.58;59.26
57885;BME280;43703;51.060;-0.086;2022-08-19T08:47:53;100067.76;;;22.99;54.08
57885;BME280;43703;51.060;-0.086;2022-08-19T08:50:15;100072.47;;;23.70;52.65
57885;BME280;43703;51.060;-0.086;2022-08-19T08:52:44;100076.60;;;24.13;48.97
57885;BME280;43703;51.060;-0.086;2022-08-19T08:55:10;100072.36;;;24.27;48.24
57885;BME280;43703;51.060;-0.086;2022-08-19T08:57:36;100070.56;;;24.07;48.27
57885;BME280;43703;51.060;-0.086;2022-08-19T09:02:30;100071.29;;;21.34;54.41
57885;BME280;43703;51.060;-0.086;2022-08-19T09:04:58;100071.33;;;21.40;53.89
57885;BME280;43703;51.060;-0.086;2022-08-19T09:09:46;100068.08;;;20.51;56.14
57885;BME280;43703;51.060;-0.086;2022-08-19T09:12:22;100072.62;;;21.04;56.13
57885;BME280;43703;51.060;-0.086;2022-08-19T09:17:01;100063.64;;;21.38;58.00
57885;BME280;43703;51.060;-0.086;2022-08-19T09:19:23;100066.18;;;21.68;53.60
57885;BME280;43703;51.060;-0.086;2022-08-19T09:21:51;100067.41;;;20.93;54.66
57885;BME280;43703;51.060;-0.086;2022-08-19T09:26:44;100067.00;;;21.09;53.65
57885;BME280;43703;51.060;-0.086;2022-08-19T09:29:07;100068.31;;;21.71;51.60
57885;BME280;43703;51.060;-0.086;2022-08-19T09:31:32;100069.10;;;22.46;53.45
57885;BME280;43703;51.060;-0.086;2022-08-19T09:34:02;100067.86;;;23.70;50.96
57885;BME280;43703;51.060;-0.086;2022-08-19T09:36:27;100064.48;;;24.93;48.87
57885;BME280;43703;51.060;-0.086;2022-08-19T09:38:48;100060.67;;;26.34;48.77
57885;BME280;43703;51.060;-0.086;2022-08-19T09:41:17;100054.72;;;25.08;47.85
57885;BME280;43703;51.060;-0.086;2022-08-19T09:43:54;100062.17;;;23.54;46.18
57885;BME280;43703;51.060;-0.086;2022-08-19T09:48:32;100055.55;;;22.04;50.37
57885;BME280;43703;51.060;-0.086;2022-08-19T09:51:05;100056.79;;;21.83;51.46
57885;BME280;43703;51.060;-0.086;2022-08-19T09:53:23;100056.32;;;21.28;51.43
57885;BME280;43703;51.060;-0.086;2022-08-19T09:55:51;100053.90;;;21.84;50.97
57885;BME280;43703;51.060;-0.086;2022-08-19T09:58:15;100052.91;;;22.66;48.55
57885;BME280;43703;51.060;-0.086;2022-08-19T10:00:44;100051.48;;;21.86;51.08
57885;BME280;43703;51.060;-0.086;2022-08-19T10:03:11;100054.58;;;21.64;51.96
57885;BME280;43703;51.060;-0.086;2022-08-19T10:05:33;100058.00;;;21.09;52.95
57885;BME280;43703;51.060;-0.086;2022-08-19T10:15:18;100069.38;;;20.39;54.82
57885;BME280;43703;51.060;-0.086;2022-08-19T10:17:41;100072.24;;;18.90;59.14
57885;BME280;43703;51.060;-0.086;2022-08-19T10:20:12;100070.48;;;18.88;59.82
57885;BME280;43703;51.060;-0.086;2022-08-19T10:22:38;100072.41;;;18.91;60.27
57885;BME280;43703;51.060;-0.086;2022-08-19T10:24:58;100072.61;;;19.12;61.17
57885;BME280;43703;51.060;-0.086;2022-08-19T10:27:24;100074.32;;;18.66;61.06
57885;BME280;43703;51.060;-0.086;2022-08-19T10:29:52;100074.13;;;18.87;61.99
57885;BME280;43703;51.060;-0.086;2022-08-19T10:34:43;100080.23;;;19.26;59.38
57885;BME280;43703;51.060;-0.086;2022-08-19T10:39:38;100094.06;;;19.53;62.51
57885;BME280;43703;51.060;-0.086;2022-08-19T10:44:24;100098.03;;;19.97;64.74
57885;BME280;43703;51.060;-0.086;2022-08-19T10:46:56;100097.55;;;18.68;67.06
57885;BME280;43703;51.060;-0.086;2022-08-19T10:49:31;100100.99;;;19.24;66.73
57885;BME280;43703;51.060;-0.086;2022-08-19T10:51:47;100100.12;;;18.71;67.50
57885;BME280;43703;51.060;-0.086;2022-08-19T10:54:07;100103.13;;;18.94;66.99
57885;BME280;43703;51.060;-0.086;2022-08-19T11:01:30;100101.52;;;19.67;65.02
57885;BME280;43703;51.060;-0.086;2022-08-19T11:03:50;100098.81;;;20.38;63.62
57885;BME280;43703;51.060;-0.086;2022-08-19T11:06:16;100101.09;;;20.20;63.29
57885;BME280;43703;51.060;-0.086;2022-08-19T11:08:42;100101.50;;;19.85;64.55
57885;BME280;43703;51.060;-0.086;2022-08-19T11:11:08;100103.32;;;19.47;65.88
57885;BME280;43703;51.060;-0.086;2022-08-19T11:13:39;100102.62;;;19.62;65.59
57885;BME280;43703;51.060;-0.086;2022-08-19T11:16:02;100108.18;;;19.15;68.86
57885;BME280;43703;51.060;-0.086;2022-08-19T11:18:25;100108.84;;;18.82;67.13
57885;BME280;43703;51.060;-0.086;2022-08-19T11:20:51;100104.76;;;20.31;64.56
57885;BME280;43703;51.060;-0.086;2022-08-19T11:23:16;100104.73;;;20.09;63.16
57885;BME280;43703;51.060;-0.086;2022-08-19T11:25:50;100109.04;;;20.78;62.06
57885;BME280;43703;51.060;-0.086;2022-08-19T11:28:08;100117.46;;;19.90;62.17
57885;BME280;43703;51.060;-0.086;2022-08-19T11:30:33;100115.93;;;19.23;65.32
57885;BME280;43703;51.060;-0.086;2022-08-19T11:33:05;100120.72;;;19.65;62.41
57885;BME280;43703;51.060;-0.086;2022-08-19T11:35:26;100122.61;;;18.94;64.21
57885;BME280;43703;51.060;-0.086;2022-08-19T11:37:51;100127.34;;;18.54;65.93
57885;BME280;43703;51.060;-0.086;2022-08-19T11:40:17;100122.47;;;18.33;67.61
57885;BME280;43703;51.060;-0.086;2022-08-19T11:42:44;100125.40;;;19.46;64.93
57885;BME280;43703;51.060;-0.086;2022-08-19T11:45:09;100121.14;;;20.02;63.02
57885;BME280;43703;51.060;-0.086;2022-08-19T11:47:34;100121.77;;;20.96;62.96
57885;BME280;43703;51.060;-0.086;2022-08-19T11:50:00;100121.32;;;21.03;62.27
57885;BME280;43703;51.060;-0.086;2022-08-19T11:52:26;100119.38;;;21.39;60.90
57885;BME280;43703;51.060;-0.086;2022-08-19T11:54:53;100123.13;;;21.83;59.40
57885;BME280;43703;51.060;-0.086;2022-08-19T11:57:18;100129.70;;;19.76;62.19
57885;BME280;43703;51.060;-0.086;2022-08-19T11:59:50;100125.03;;;20.43;61.43
57885;BME280;43703;51.060;-0.086;2022-08-19T12:02:09;100127.14;;;20.81;59.28
57885;BME280;43703;51.060;-0.086;2022-08-19T12:04:35;100129.30;;;20.13;60.21
57885;BME280;43703;51.060;-0.086;2022-08-19T12:07:01;100125.76;;;20.07;60.87
57885;BME280;43703;51.060;-0.086;2022-08-19T12:09:27;100130.52;;;19.86;62.46
57885;BME280;43703;51.060;-0.086;2022-08-19T12:11:53;100129.90;;;20.53;61.70
57885;BME280;43703;51.060;-0.086;2022-08-19T12:14:18;100133.02;;;20.84;59.27
57885;BME280;43703;51.060;-0.086;2022-08-19T12:16:45;100129.64;;;21.23;58.63
57885;BME280;43703;51.060;-0.086;2022-08-19T12:19:10;100127.44;;;21.43;59.24
57885;BME280;43703;51.060;-0.086;2022-08-19T12:21:36;100126.20;;;21.06;61.22
57885;BME280;43703;51.060;-0.086;2022-08-19T12:24:03;100122.88;;;20.91;62.94
57885;BME280;43703;51.060;-0.086;2022-08-19T12:26:29;100120.77;;;19.75;65.81
57885;BME280;43703;51.060;-0.086;2022-08-19T12:29:00;100124.96;;;19.98;64.86
57885;BME280;43703;51.060;-0.086;2022-08-19T12:31:20;100124.17;;;21.68;59.28
57885;BME280;43703;51.060;-0.086;2022-08-19T12:33:46;100122.20;;;20.65;60.75
57885;BME280;43703;51.060;-0.086;2022-08-19T12:36:13;100126.37;;;19.85;60.63
57885;BME280;43703;51.060;-0.086;2022-08-19T12:38:37;100119.61;;;20.46;61.60
57885;BME280;43703;51.060;-0.086;2022-08-19T12:41:04;100119.32;;;19.70;63.90
57885;BME280;43703;51.060;-0.086;2022-08-19T12:43:29;100122.22;;;21.09;59.97
57885;BME280;43703;51.060;-0.086;2022-08-19T12:45:54;100121.41;;;20.99;57.45
57885;BME280;43703;51.060;-0.086;2022-08-19T12:48:20;100115.73;;;20.72;58.59
57885;BME280;43703;51.060;-0.086;2022-08-19T12:50:46;100115.35;;;20.53;59.64
57885;BME280;43703;51.060;-0.086;2022-08-19T12:53:12;100113.42;;;20.44;59.13
57885;BME280;43703;51.060;-0.086;2022-08-19T13:12:44;100105.86;;;20.58;58.26
57885;BME280;43703;51.060;-0.086;2022-08-19T13:15:14;100101.31;;;20.23;52.26
57885;BME280;43703;51.060;-0.086;2022-08-19T13:22:32;100101.25;;;20.37;56.27
57885;BME280;43703;51.060;-0.086;2022-08-19T13:24:52;100100.98;;;20.64;56.64
57885;BME280;43703;51.060;-0.086;2022-08-19T13:27:13;100094.30;;;20.21;54.08
57885;BME280;43703;51.060;-0.086;2022-08-19T13:29:44;100088.97;;;20.52;56.15
57885;BME280;43703;51.060;-0.086;2022-08-19T13:32:05;100085.98;;;20.95;55.25
57885;BME280;43703;51.060;-0.086;2022-08-19T13:34:33;100084.13;;;21.01;53.72